sensor_id;sensor_type;location;lat;lon;timestamp;pressure;altitude;pressure_sealevel;temperature;humidity
45888;BME280;31595;51.418;7.572;2023-04-25T00:01:02;99617.56;;;7.58;67.41
45888;BME280;31595;51.418;7.572;2023-04-25T00:03:30;99608.91;;;7.50;66.99
45888;BME280;31595;51.418;7.572;2023-04-25T00:05:58;99617.00;;;7.47;67.38
45888;BME280;31595;51.418;7.572;2023-04-25T00:08:29;99615.13;;;7.56;67.46
45888;BME280;31595;51.418;7.572;2023-04-25T00:10:56;99626.13;;;7.70;66.33
45888;BME280;31595;51.418;7.572;2023-04-25T00:13:23;99623.38;;;7.70;66.35
45888;BME280;31595;51.418;7.572;2023-04-25T00:15:51;99626.69;;;7.81;65.95
45888;BME280;31595;51.418;7.572;2023-04-25T00:18:19;99630.34;;;7.90;66.30
45888;BME280;31595;51.418;7.572;2023-04-25T00:20:46;99621.25;;;7.98;65.88
45888;BME280;31595;51.418;7.572;2023-04-25T00:23:14;99622.63;;;8.09;65.94
45888;BME280;31595;51.418;7.572;2023-04-25T00:25:45;99624.63;;;8.18;65.65
45888;BME280;31595;51.418;7.572;2023-04-25T00:28:13;99625.34;;;8.32;64.81
45888;BME280;31595;51.418;7.572;2023-04-25T00:30:41;99631.88;;;8.36;65.00
45888;BME280;31595;51.418;7.572;2023-04-25T00:33:09;99636.19;;;8.42;64.13
45888;BME280;31595;51.418;7.572;2023-04-25T00:35:36;99628.34;;;8.44;64.74
45888;BME280;31595;51.418;7.572;2023-04-25T00:38:04;99629.34;;;8.48;64.88
45888;BME280;31595;51.418;7.572;2023-04-25T00:40:31;99629.03;;;8.59;63.58
45888;BME280;31595;51.418;7.572;2023-04-25T00:43:00;99634.44;;;8.55;63.59
45888;BME280;31595;51.418;7.572;2023-04-25T00:45:28;99628.91;;;8.64;63.83
45888;BME280;31595;51.418;7.572;2023-04-25T00:47:56;99623.38;;;8.72;63.20
45888;BME280;31595;51.418;7.572;2023-04-25T00:50:24;99621.28;;;8.78;64.28
45888;BME280;31595;51.418;7.572;2023-04-25T00:52:51;99615.72;;;8.87;62.76
45888;BME280;31595;51.418;7.572;2023-04-25T00:55:19;99616.22;;;8.89;63.25
45888;BME280;31595;51.418;7.572;2023-04-25T00:57:46;99620.47;;;8.95;63.56
45888;BME280;31595;51.418;7.572;2023-04-25T01:00:16;99615.25;;;8.93;63.44
45888;BME280;31595;51.418;7.572;2023-04-25T01:02:44;99627.84;;;9.00;63.69
45888;BME280;31595;51.418;7.572;2023-04-25T01:05:12;99622.28;;;9.00;62.78
45888;BME280;31595;51.418;7.572;2023-04-25T01:07:39;99631.28;;;8.97;62.95
45888;BME280;31595;51.418;7.572;2023-04-25T01:10:08;99620.81;;;9.02;64.02
45888;BME280;31595;51.418;7.572;2023-04-25T01:12:35;99624.88;;;9.05;62.93
45888;BME280;31595;51.418;7.572;2023-04-25T01:15:03;99618.69;;;9.08;64.27
45888;BME280;31595;51.418;7.572;2023-04-25T01:17:34;99624.56;;;9.15;62.70
45888;BME280;31595;51.418;7.572;2023-04-25T01:20:03;99625.91;;;9.18;63.21
45888;BME280;31595;51.418;7.572;2023-04-25T01:22:32;99629.63;;;9.22;63.32
45888;BME280;31595;51.418;7.572;2023-04-25T01:25:00;99625.91;;;9.26;62.92
45888;BME280;31595;51.418;7.572;2023-04-25T01:27:27;99625.72;;;9.31;63.24
45888;BME280;31595;51.418;7.572;2023-04-25T01:29:56;99626.72;;;9.35;62.96
45888;BME280;31595;51.418;7.572;2023-04-25T01:32:23;99624.75;;;9.36;62.84
45888;BME280;31595;51.418;7.572;2023-04-25T01:34:51;99623.63;;;9.28;63.69
45888;BME280;31595;51.418;7.572;2023-04-25T01:37:18;99625.06;;;9.26;62.80
45888;BME280;31595;51.418;7.572;2023-04-25T01:39:47;99628.69;;;9.26;63.22
45888;BME280;31595;51.418;7.572;2023-04-25T01:42:16;99627.69;;;9.22;63.78
45888;BME280;31595;51.418;7.572;2023-04-25T01:44:43;99629.16;;;9.11;64.33
45888;BME280;31595;51.418;7.572;2023-04-25T01:47:10;99635.06;;;9.18;64.90
45888;BME280;31595;51.418;7.572;2023-04-25T01:49:37;99634.88;;;9.23;65.26
45888;BME280;31595;51.418;7.572;2023-04-25T01:52:05;99636.50;;;9.07;65.42
45888;BME280;31595;51.418;7.572;2023-04-25T01:54:32;99636.03;;;9.13;66.87
45888;BME280;31595;51.418;7.572;2023-04-25T01:57:00;99639.63;;;9.14;66.62
45888;BME280;31595;51.418;7.572;2023-04-25T01:59:28;99648.09;;;9.09;66.61
45888;BME280;31595;51.418;7.572;2023-04-25T02:01:55;99645.97;;;8.97;68.08
45888;BME280;31595;51.418;7.572;2023-04-25T02:04:22;99642.69;;;8.95;68.36
45888;BME280;31595;51.418;7.572;2023-04-25T02:06:50;99651.34;;;8.93;71.38
45888;BME280;31595;51.418;7.572;2023-04-25T02:09:17;99657.22;;;8.92;71.20
45888;BME280;31595;51.418;7.572;2023-04-25T02:11:44;99659.19;;;8.91;70.53
45888;BME280;31595;51.418;7.572;2023-04-25T02:14:13;99663.75;;;8.87;69.97
45888;BME280;31595;51.418;7.572;2023-04-25T02:16:40;99661.47;;;8.89;71.32
45888;BME280;31595;51.418;7.572;2023-04-25T02:19:10;99658.06;;;8.92;71.55
45888;BME280;31595;51.418;7.572;2023-04-25T02:21:37;99654.94;;;8.94;71.44
45888;BME280;31595;51.418;7.572;2023-04-25T02:24:06;99652.34;;;8.98;70.92
45888;BME280;31595;51.418;7.572;2023-04-25T02:26:33;99651.69;;;9.01;71.55
45888;BME280;31595;51.418;7.572;2023-04-25T02:29:00;99657.41;;;9.04;70.93
45888;BME280;31595;51.418;7.572;2023-04-25T02:31:29;99659.69;;;9.11;71.49
45888;BME280;31595;51.418;7.572;2023-04-25T02:33:56;99662.97;;;9.13;70.32
45888;BME280;31595;51.418;7.572;2023-04-25T02:36:24;99659.56;;;9.16;70.83
45888;BME280;31595;51.418;7.572;2023-04-25T02:38:52;99663.31;;;9.11;70.47
45888;BME280;31595;51.418;7.572;2023-04-25T02:41:19;99658.56;;;9.12;70.08
45888;BME280;31595;51.418;7.572;2023-04-25T02:43:46;99661.84;;;9.14;70.27
45888;BME280;31595;51.418;7.572;2023-04-25T02:46:14;99674.75;;;9.19;69.52
45888;BME280;31595;51.418;7.572;2023-04-25T02:48:43;99663.81;;;9.22;69.80
45888;BME280;31595;51.418;7.572;2023-04-25T02:51:10;99667.59;;;9.26;69.10
45888;BME280;31595;51.418;7.572;2023-04-25T02:53:38;99667.59;;;9.26;69.90
45888;BME280;31595;51.418;7.572;2023-04-25T02:56:05;99664.47;;;9.28;68.51
45888;BME280;31595;51.418;7.572;2023-04-25T02:58:32;99671.81;;;9.24;69.88
45888;BME280;31595;51.418;7.572;2023-04-25T03:01:00;99665.94;;;9.25;68.34
45888;BME280;31595;51.418;7.572;2023-04-25T03:03:27;99666.25;;;9.24;69.80
45888;BME280;31595;51.418;7.572;2023-04-25T03:05:56;99669.03;;;9.15;69.46
45888;BME280;31595;51.418;7.572;2023-04-25T03:08:23;99664.63;;;9.14;69.99
45888;BME280;31595;51.418;7.572;2023-04-25T03:10:51;99666.91;;;9.12;69.83
45888;BME280;31595;51.418;7.572;2023-04-25T03:13:21;99668.88;;;9.11;68.96
45888;BME280;31595;51.418;7.572;2023-04-25T03:15:48;99674.09;;;9.13;68.71
45888;BME280;31595;51.418;7.572;2023-04-25T03:18:15;99673.78;;;9.14;69.72
45888;BME280;31595;51.418;7.572;2023-04-25T03:20:43;99669.03;;;9.15;70.19
45888;BME280;31595;51.418;7.572;2023-04-25T03:23:11;99667.53;;;9.09;68.60
45888;BME280;31595;51.418;7.572;2023-04-25T03:25:39;99674.88;;;9.05;69.91
45888;BME280;31595;51.418;7.572;2023-04-25T03:28:06;99671.28;;;9.04;69.34
45888;BME280;31595;51.418;7.572;2023-04-25T03:30:33;99673.75;;;8.97;69.29
45888;BME280;31595;51.418;7.572;2023-04-25T03:33:00;99677.50;;;8.92;71.15
45888;BME280;31595;51.418;7.572;2023-04-25T03:35:28;99681.41;;;8.91;70.00
45888;BME280;31595;51.418;7.572;2023-04-25T03:37:55;99678.13;;;8.89;69.34
45888;BME280;31595;51.418;7.572;2023-04-25T03:40:24;99680.91;;;8.89;69.43
45888;BME280;31595;51.418;7.572;2023-04-25T03:42:51;99681.22;;;8.88;70.09
45888;BME280;31595;51.418;7.572;2023-04-25T03:45:18;99692.00;;;8.89;70.29
45888;BME280;31595;51.418;7.572;2023-04-25T03:47:46;99686.16;;;8.91;71.11
45888;BME280;31595;51.418;7.572;2023-04-25T03:50:13;99693.97;;;8.89;69.39
45888;BME280;31595;51.418;7.572;2023-04-25T03:52:40;99690.03;;;8.81;70.03
45888;BME280;31595;51.418;7.572;2023-04-25T03:55:08;99688.91;;;8.82;69.88
45888;BME280;31595;51.418;7.572;2023-04-25T03:57:37;99687.91;;;8.78;70.22
45888;BME280;31595;51.418;7.572;2023-04-25T04:00:05;99692.97;;;8.76;71.07
45888;BME280;31595;51.418;7.572;2023-04-25T04:02:33;99684.63;;;8.76;70.16
45888;BME280;31595;51.418;7.572;2023-04-25T04:05:02;99689.69;;;8.74;70.06
45888;BME280;31595;51.418;7.572;2023-04-25T04:07:29;99692.78;;;8.72;70.75
45888;BME280;31595;51.418;7.572;2023-04-25T04:09:58;99693.59;;;8.73;70.03
45888;BME280;31595;51.418;7.572;2023-04-25T04:12:26;99707.81;;;8.71;69.46
45888;BME280;31595;51.418;7.572;2023-04-25T04:14:54;99702.56;;;8.70;70.64
45888;BME280;31595;51.418;7.572;2023-04-25T04:17:21;99710.25;;;8.73;70.79
45888;BME280;31595;51.418;7.572;2023-04-25T04:19:49;99699.97;;;8.73;69.29
45888;BME280;31595;51.418;7.572;2023-04-25T04:22:16;99707.97;;;8.75;70.57
45888;BME280;31595;51.418;7.572;2023-04-25T04:24:43;99709.28;;;8.78;69.34
45888;BME280;31595;51.418;7.572;2023-04-25T04:27:13;99703.91;;;8.81;69.20
45888;BME280;31595;51.418;7.572;2023-04-25T04:29:40;99712.56;;;8.80;69.09
45888;BME280;31595;51.418;7.572;2023-04-25T04:32:09;99703.28;;;8.84;68.87
45888;BME280;31595;51.418;7.572;2023-04-25T04:34:36;99714.22;;;8.81;70.21
45888;BME280;31595;51.418;7.572;2023-04-25T04:37:05;99722.38;;;8.86;70.42
45888;BME280;31595;51.418;7.572;2023-04-25T04:39:32;99729.41;;;8.83;70.03
45888;BME280;31595;51.418;7.572;2023-04-25T04:42:00;99734.28;;;8.78;70.33
45888;BME280;31595;51.418;7.572;2023-04-25T04:44:29;99737.50;;;8.71;68.58
45888;BME280;31595;51.418;7.572;2023-04-25T04:46:58;99746.28;;;8.56;68.87
45888;BME280;31595;51.418;7.572;2023-04-25T04:49:27;99748.00;;;8.43;68.19
45888;BME280;31595;51.418;7.572;2023-04-25T04:51:54;99739.91;;;8.32;68.09
45888;BME280;31595;51.418;7.572;2023-04-25T04:54:21;99745.91;;;8.26;68.80
45888;BME280;31595;51.418;7.572;2023-04-25T04:56:49;99751.66;;;8.29;68.66
45888;BME280;31595;51.418;7.572;2023-04-25T04:59:16;99749.69;;;8.30;68.18
45888;BME280;31595;51.418;7.572;2023-04-25T05:01:46;99754.59;;;8.33;68.10
45888;BME280;31595;51.418;7.572;2023-04-25T05:04:13;99750.06;;;8.37;68.00
45888;BME280;31595;51.418;7.572;2023-04-25T05:06:42;99757.63;;;8.45;68.65
45888;BME280;31595;51.418;7.572;2023-04-25T05:09:10;99754.38;;;8.43;68.28
45888;BME280;31595;51.418;7.572;2023-04-25T05:11:37;99757.84;;;8.49;69.00
45888;BME280;31595;51.418;7.572;2023-04-25T05:14:04;99759.00;;;8.57;67.41
45888;BME280;31595;51.418;7.572;2023-04-25T05:16:32;99762.97;;;8.64;66.79
45888;BME280;31595;51.418;7.572;2023-04-25T05:18:59;99760.72;;;8.75;66.33
45888;BME280;31595;51.418;7.572;2023-04-25T05:21:26;99769.94;;;8.84;67.00
45888;BME280;31595;51.418;7.572;2023-04-25T05:23:56;99769.81;;;8.98;65.23
45888;BME280;31595;51.418;7.572;2023-04-25T05:26:23;99772.09;;;8.96;65.19
45888;BME280;31595;51.418;7.572;2023-04-25T05:28:50;99781.44;;;9.09;64.64
45888;BME280;31595;51.418;7.572;2023-04-25T05:31:17;99775.94;;;9.18;66.20
45888;BME280;31595;51.418;7.572;2023-04-25T05:33:45;99789.66;;;9.23;64.70
45888;BME280;31595;51.418;7.572;2023-04-25T05:36:12;99791.34;;;9.32;65.06
45888;BME280;31595;51.418;7.572;2023-04-25T05:38:39;99795.94;;;9.37;64.56
45888;BME280;31595;51.418;7.572;2023-04-25T05:41:08;99807.19;;;9.41;63.83
45888;BME280;31595;51.418;7.572;2023-04-25T05:43:35;99799.19;;;9.30;65.04
45888;BME280;31595;51.418;7.572;2023-04-25T05:46:02;99796.41;;;9.30;65.17
45888;BME280;31595;51.418;7.572;2023-04-25T05:48:29;99801.78;;;9.27;65.58
45888;BME280;31595;51.418;7.572;2023-04-25T05:50:57;99804.09;;;9.33;65.34
45888;BME280;31595;51.418;7.572;2023-04-25T05:53:24;99806.38;;;9.31;65.15
45888;BME280;31595;51.418;7.572;2023-04-25T05:55:51;99802.63;;;9.36;64.05
45888;BME280;31595;51.418;7.572;2023-04-25T05:58:20;99808.69;;;9.47;65.05
45888;BME280;31595;51.418;7.572;2023-04-25T06:00:47;99815.09;;;9.56;63.76
45888;BME280;31595;51.418;7.572;2023-04-25T06:03:14;99817.09;;;9.73;64.75
45888;BME280;31595;51.418;7.572;2023-04-25T06:05:42;99821.38;;;9.88;64.41
45888;BME280;31595;51.418;7.572;2023-04-25T06:08:09;99816.47;;;10.02;63.57
45888;BME280;31595;51.418;7.572;2023-04-25T06:10:37;99821.53;;;10.26;62.74
45888;BME280;31595;51.418;7.572;2023-04-25T06:13:04;99827.94;;;10.53;62.69
45888;BME280;31595;51.418;7.572;2023-04-25T06:15:33;99825.06;;;10.79;61.53
45888;BME280;31595;51.418;7.572;2023-04-25T06:18:00;99829.78;;;10.96;60.80
45888;BME280;31595;51.418;7.572;2023-04-25T06:20:28;99824.00;;;11.10;60.45
45888;BME280;31595;51.418;7.572;2023-04-25T06:22:55;99834.78;;;11.20;59.55
45888;BME280;31595;51.418;7.572;2023-04-25T06:25:23;99837.53;;;11.29;59.55
45888;BME280;31595;51.418;7.572;2023-04-25T06:27:50;99821.53;;;11.47;59.44
45888;BME280;31595;51.418;7.572;2023-04-25T06:30:17;99829.25;;;11.71;58.72
45888;BME280;31595;51.418;7.572;2023-04-25T06:32:49;99830.28;;;11.96;58.60
45888;BME280;31595;51.418;7.572;2023-04-25T06:35:17;99823.75;;;12.13;57.78
45888;BME280;31595;51.418;7.572;2023-04-25T06:37:44;99829.78;;;12.36;56.96
45888;BME280;31595;51.418;7.572;2023-04-25T06:40:11;99831.59;;;12.53;56.37
45888;BME280;31595;51.418;7.572;2023-04-25T06:42:39;99834.53;;;12.56;56.48
45888;BME280;31595;51.418;7.572;2023-04-25T06:45:07;99834.44;;;12.65;55.22
45888;BME280;31595;51.418;7.572;2023-04-25T06:47:34;99836.53;;;12.56;56.23
45888;BME280;31595;51.418;7.572;2023-04-25T06:50:04;99834.69;;;12.60;55.32
45888;BME280;31595;51.418;7.572;2023-04-25T06:52:32;99831.13;;;12.51;54.58
45888;BME280;31595;51.418;7.572;2023-04-25T06:54:59;99835.50;;;12.39;55.88
45888;BME280;31595;51.418;7.572;2023-04-25T06:57:26;99840.22;;;12.27;55.64
45888;BME280;31595;51.418;7.572;2023-04-25T06:59:53;99839.06;;;12.28;54.78
45888;BME280;31595;51.418;7.572;2023-04-25T07:02:21;99845.19;;;12.42;54.60
45888;BME280;31595;51.418;7.572;2023-04-25T07:04:48;99849.88;;;12.50;55.37
45888;BME280;31595;51.418;7.572;2023-04-25T07:07:17;99842.41;;;12.75;54.56
45888;BME280;31595;51.418;7.572;2023-04-25T07:09:44;99840.25;;;13.06;54.04
45888;BME280;31595;51.418;7.572;2023-04-25T07:12:11;99845.91;;;13.30;53.66
45888;BME280;31595;51.418;7.572;2023-04-25T07:14:38;99837.53;;;13.43;53.47
45888;BME280;31595;51.418;7.572;2023-04-25T07:17:06;99835.44;;;13.52;52.13
45888;BME280;31595;51.418;7.572;2023-04-25T07:19:33;99849.31;;;13.36;51.08
45888;BME280;31595;51.418;7.572;2023-04-25T07:22:00;99854.44;;;13.34;51.68
45888;BME280;31595;51.418;7.572;2023-04-25T07:24:29;99857.97;;;13.10;50.62
45888;BME280;31595;51.418;7.572;2023-04-25T07:26:56;99860.91;;;12.80;52.48
45888;BME280;31595;51.418;7.572;2023-04-25T07:29:24;99856.53;;;13.37;50.61
45888;BME280;31595;51.418;7.572;2023-04-25T07:31:51;99857.13;;;13.55;49.42
45888;BME280;31595;51.418;7.572;2023-04-25T07:34:19;99852.75;;;14.47;48.89
45888;BME280;31595;51.418;7.572;2023-04-25T07:36:46;99861.16;;;14.59;49.12
45888;BME280;31595;51.418;7.572;2023-04-25T07:39:13;99865.66;;;14.92;47.88
45888;BME280;31595;51.418;7.572;2023-04-25T07:41:42;99866.13;;;14.94;46.29
45888;BME280;31595;51.418;7.572;2023-04-25T07:44:09;99869.44;;;14.84;45.79
45888;BME280;31595;51.418;7.572;2023-04-25T07:46:36;99866.75;;;14.88;45.91
45888;BME280;31595;51.418;7.572;2023-04-25T07:49:03;99867.94;;;15.02;45.02
45888;BME280;31595;51.418;7.572;2023-04-25T07:51:31;99874.34;;;15.03;45.01
45888;BME280;31595;51.418;7.572;2023-04-25T07:53:58;99872.38;;;15.04;46.06
45888;BME280;31595;51.418;7.572;2023-04-25T07:56:26;99881.00;;;15.42;44.35
45888;BME280;31595;51.418;7.572;2023-04-25T07:58:55;99879.25;;;16.01;42.86
45888;BME280;31595;51.418;7.572;2023-04-25T08:01:23;99875.41;;;15.74;42.96
45888;BME280;31595;51.418;7.572;2023-04-25T08:03:50;99889.00;;;15.56;43.88
45888;BME280;31595;51.418;7.572;2023-04-25T08:06:17;99886.91;;;15.37;44.21
45888;BME280;31595;51.418;7.572;2023-04-25T08:08:45;99891.53;;;15.46;44.29
45888;BME280;31595;51.418;7.572;2023-04-25T08:11:12;99896.69;;;15.43;42.38
45888;BME280;31595;51.418;7.572;2023-04-25T08:13:39;99898.09;;;15.21;43.02
45888;BME280;31595;51.418;7.572;2023-04-25T08:16:08;99896.50;;;15.52;43.19
45888;BME280;31595;51.418;7.572;2023-04-25T08:18:35;99900.63;;;16.06;43.07
45888;BME280;31595;51.418;7.572;2023-04-25T08:21:03;99902.22;;;16.97;41.70
45888;BME280;31595;51.418;7.572;2023-04-25T08:23:30;99900.34;;;17.94;40.02
45888;BME280;31595;51.418;7.572;2023-04-25T08:25:57;99900.16;;;18.10;39.07
45888;BME280;31595;51.418;7.572;2023-04-25T08:28:24;99912.41;;;17.71;38.85
45888;BME280;31595;51.418;7.572;2023-04-25T08:30:52;99909.41;;;17.37;39.61
45888;BME280;31595;51.418;7.572;2023-04-25T08:33:20;99917.16;;;17.21;39.54
45888;BME280;31595;51.418;7.572;2023-04-25T08:35:48;99923.00;;;17.12;39.31
45888;BME280;31595;51.418;7.572;2023-04-25T08:38:15;99922.72;;;16.78;38.73
45888;BME280;31595;51.418;7.572;2023-04-25T08:40:43;99926.22;;;16.91;38.55
45888;BME280;31595;51.418;7.572;2023-04-25T08:43:13;99932.44;;;16.81;39.08
45888;BME280;31595;51.418;7.572;2023-04-25T08:45:41;99951.50;;;16.72;39.60
45888;BME280;31595;51.418;7.572;2023-04-25T08:48:11;99937.38;;;16.88;38.83
45888;BME280;31595;51.418;7.572;2023-04-25T08:50:40;99945.78;;;17.92;37.12
45888;BME280;31595;51.418;7.572;2023-04-25T08:53:09;99940.38;;;19.24;35.01
45888;BME280;31595;51.418;7.572;2023-04-25T08:55:41;99937.84;;;21.44;31.66
45888;BME280;31595;51.418;7.572;2023-04-25T08:58:10;99941.09;;;22.21;29.76
45888;BME280;31595;51.418;7.572;2023-04-25T09:00:38;99952.50;;;22.07;28.88
45888;BME280;31595;51.418;7.572;2023-04-25T09:03:06;99954.06;;;21.54;29.29
45888;BME280;31595;51.418;7.572;2023-04-25T09:05:33;99957.88;;;20.92;30.37
45888;BME280;31595;51.418;7.572;2023-04-25T09:08:02;99960.19;;;21.85;29.21
45888;BME280;31595;51.418;7.572;2023-04-25T09:10:29;99952.38;;;22.75;29.08
45888;BME280;31595;51.418;7.572;2023-04-25T09:13:04;99958.69;;;23.29;27.38
45888;BME280;31595;51.418;7.572;2023-04-25T09:15:32;99963.28;;;22.95;26.22
45888;BME280;31595;51.418;7.572;2023-04-25T09:17:59;99964.63;;;22.15;28.33
45888;BME280;31595;51.418;7.572;2023-04-25T09:20:28;99974.97;;;21.17;28.13
45888;BME280;31595;51.418;7.572;2023-04-25T09:23:03;99985.09;;;19.97;29.28
45888;BME280;31595;51.418;7.572;2023-04-25T09:25:35;99983.47;;;19.55;30.98
45888;BME280;31595;51.418;7.572;2023-04-25T09:28:05;99987.16;;;19.21;32.23
45888;BME280;31595;51.418;7.572;2023-04-25T09:30:34;99988.13;;;18.76;32.74
45888;BME280;31595;51.418;7.572;2023-04-25T09:33:05;99993.47;;;18.28;32.76
45888;BME280;31595;51.418;7.572;2023-04-25T09:35:35;100001.59;;;17.83;32.97
45888;BME280;31595;51.418;7.572;2023-04-25T09:38:09;99998.47;;;17.69;34.02
45888;BME280;31595;51.418;7.572;2023-04-25T09:40:40;99994.41;;;17.66;33.34
45888;BME280;31595;51.418;7.572;2023-04-25T09:43:18;100004.66;;;17.78;34.04
45888;BME280;31595;51.418;7.572;2023-04-25T09:45:45;99997.94;;;19.50;30.71
45888;BME280;31595;51.418;7.572;2023-04-25T09:48:17;100000.53;;;21.35;28.50
45888;BME280;31595;51.418;7.572;2023-04-25T09:50:45;99995.41;;;21.77;27.95
45888;BME280;31595;51.418;7.572;2023-04-25T09:53:14;99992.16;;;21.96;26.22
45888;BME280;31595;51.418;7.572;2023-04-25T09:55:42;99989.75;;;22.02;27.03
45888;BME280;31595;51.418;7.572;2023-04-25T09:58:12;99998.22;;;21.73;27.42
45888;BME280;31595;51.418;7.572;2023-04-25T10:00:41;99994.25;;;22.24;27.46
45888;BME280;31595;51.418;7.572;2023-04-25T10:03:08;100001.50;;;21.93;26.81
45888;BME280;31595;51.418;7.572;2023-04-25T10:05:37;100018.03;;;21.62;26.57
45888;BME280;31595;51.418;7.572;2023-04-25T10:08:05;100012.09;;;20.94;26.52
45888;BME280;31595;51.418;7.572;2023-04-25T10:10:37;100020.50;;;20.24;28.21
45888;BME280;31595;51.418;7.572;2023-04-25T10:13:05;100018.75;;;19.34;29.43
45888;BME280;31595;51.418;7.572;2023-04-25T10:15:35;100038.56;;;18.51;30.89
45888;BME280;31595;51.418;7.572;2023-04-25T10:18:03;100035.00;;;17.84;32.11
45888;BME280;31595;51.418;7.572;2023-04-25T10:20:30;100029.56;;;17.53;32.48
45888;BME280;31595;51.418;7.572;2023-04-25T10:23:04;100035.34;;;17.01;33.54
45888;BME280;31595;51.418;7.572;2023-04-25T10:25:35;100039.56;;;16.92;33.64
45888;BME280;31595;51.418;7.572;2023-04-25T10:28:03;100045.84;;;17.04;33.80
45888;BME280;31595;51.418;7.572;2023-04-25T10:30:31;100044.22;;;17.62;34.20
45888;BME280;31595;51.418;7.572;2023-04-25T10:32:58;100038.38;;;18.40;32.70
45888;BME280;31595;51.418;7.572;2023-04-25T10:35:28;100032.41;;;20.00;29.52
45888;BME280;31595;51.418;7.572;2023-04-25T10:38:05;100031.06;;;22.89;24.58
45888;BME280;31595;51.418;7.572;2023-04-25T10:40:33;100034.00;;;23.70;23.64
45888;BME280;31595;51.418;7.572;2023-04-25T10:46:02;100022.00;;;28.86;18.49
45888;BME280;31595;51.418;7.572;2023-04-25T10:48:31;100020.34;;;30.24;16.73
45888;BME280;31595;51.418;7.572;2023-04-25T10:51:07;100025.63;;;28.74;19.08
45888;BME280;31595;51.418;7.572;2023-04-25T10:53:35;100021.00;;;26.98;19.61
45888;BME280;31595;51.418;7.572;2023-04-25T10:56:09;100008.09;;;28.06;19.09
45888;BME280;31595;51.418;7.572;2023-04-25T10:58:42;100013.66;;;27.77;18.60
45888;BME280;31595;51.418;7.572;2023-04-25T11:01:12;100019.09;;;26.71;19.55
45888;BME280;31595;51.418;7.572;2023-04-25T11:03:43;100033.00;;;25.64;20.38
45888;BME280;31595;51.418;7.572;2023-04-25T11:06:20;100037.28;;;24.77;20.13
45888;BME280;31595;51.418;7.572;2023-04-25T11:08:50;100024.06;;;24.00;22.09
45888;BME280;31595;51.418;7.572;2023-04-25T11:11:18;100038.94;;;23.59;20.58
45888;BME280;31595;51.418;7.572;2023-04-25T11:13:48;100037.19;;;22.55;22.35
45888;BME280;31595;51.418;7.572;2023-04-25T11:16:17;100037.44;;;21.49;23.27
45888;BME280;31595;51.418;7.572;2023-04-25T11:18:45;100045.94;;;20.73;24.93
45888;BME280;31595;51.418;7.572;2023-04-25T11:21:13;100057.47;;;20.05;25.97
45888;BME280;31595;51.418;7.572;2023-04-25T11:23:40;100057.19;;;19.42;26.91
45888;BME280;31595;51.418;7.572;2023-04-25T11:26:08;100058.38;;;18.81;27.97
45888;BME280;31595;51.418;7.572;2023-04-25T11:28:35;100051.56;;;18.09;28.10
45888;BME280;31595;51.418;7.572;2023-04-25T11:31:03;100062.19;;;17.54;29.32
45888;BME280;31595;51.418;7.572;2023-04-25T11:33:32;100068.25;;;17.17;29.65
45888;BME280;31595;51.418;7.572;2023-04-25T11:36:00;100075.75;;;16.93;30.82
45888;BME280;31595;51.418;7.572;2023-04-25T11:38:27;100072.78;;;16.70;31.19
45888;BME280;31595;51.418;7.572;2023-04-25T11:40:55;100091.59;;;16.34;32.87
45888;BME280;31595;51.418;7.572;2023-04-25T11:43:22;100094.22;;;16.11;33.19
45888;BME280;31595;51.418;7.572;2023-04-25T11:45:50;100090.00;;;15.89;33.98
45888;BME280;31595;51.418;7.572;2023-04-25T11:48:18;100096.56;;;15.65;33.74
45888;BME280;31595;51.418;7.572;2023-04-25T11:50:47;100100.94;;;15.50;33.64
45888;BME280;31595;51.418;7.572;2023-04-25T11:53:17;100092.25;;;15.55;34.32
45888;BME280;31595;51.418;7.572;2023-04-25T11:55:44;100095.75;;;15.65;35.01
45888;BME280;31595;51.418;7.572;2023-04-25T11:58:12;100103.03;;;15.53;34.96
45888;BME280;31595;51.418;7.572;2023-04-25T12:00:42;100103.81;;;15.38;35.53
45888;BME280;31595;51.418;7.572;2023-04-25T12:03:12;100107.31;;;15.35;34.78
45888;BME280;31595;51.418;7.572;2023-04-25T12:05:40;100106.59;;;15.38;35.67
45888;BME280;31595;51.418;7.572;2023-04-25T12:08:12;100108.00;;;15.44;35.81
45888;BME280;31595;51.418;7.572;2023-04-25T12:10:41;100105.59;;;15.58;35.00
45888;BME280;31595;51.418;7.572;2023-04-25T12:13:22;100113.72;;;16.20;34.70
45888;BME280;31595;51.418;7.572;2023-04-25T12:15:50;100111.97;;;17.69;31.69
45888;BME280;31595;51.418;7.572;2023-04-25T12:18:19;100103.56;;;19.72;29.79
45888;BME280;31595;51.418;7.572;2023-04-25T12:20:47;100104.38;;;23.48;24.25
45888;BME280;31595;51.418;7.572;2023-04-25T12:23:16;100093.13;;;26.08;21.69
45888;BME280;31595;51.418;7.572;2023-04-25T12:25:44;100100.22;;;28.38;18.57
45888;BME280;31595;51.418;7.572;2023-04-25T12:28:13;100083.38;;;29.34;17.09
45888;BME280;31595;51.418;7.572;2023-04-25T12:30:57;100092.25;;;30.72;15.88
45888;BME280;31595;51.418;7.572;2023-04-25T12:33:26;100078.59;;;31.77;15.54
45888;BME280;31595;51.418;7.572;2023-04-25T12:35:53;100086.78;;;32.41;14.47
45888;BME280;31595;51.418;7.572;2023-04-25T12:38:24;100080.69;;;33.07;14.88
45888;BME280;31595;51.418;7.572;2023-04-25T12:40:52;100095.75;;;32.34;14.60
45888;BME280;31595;51.418;7.572;2023-04-25T12:43:20;100081.03;;;33.19;13.35
45888;BME280;31595;51.418;7.572;2023-04-25T12:45:47;100088.88;;;33.27;13.05
45888;BME280;31595;51.418;7.572;2023-04-25T12:48:16;100083.91;;;33.65;12.80
45888;BME280;31595;51.418;7.572;2023-04-25T12:50:43;100084.22;;;32.43;14.32
45888;BME280;31595;51.418;7.572;2023-04-25T12:53:10;100089.66;;;32.91;13.69
45888;BME280;31595;51.418;7.572;2023-04-25T12:55:39;100082.81;;;33.16;13.42
45888;BME280;31595;51.418;7.572;2023-04-25T12:58:07;100074.38;;;32.63;13.99
45888;BME280;31595;51.418;7.572;2023-04-25T13:00:34;100071.72;;;31.74;16.17
45888;BME280;31595;51.418;7.572;2023-04-25T13:03:02;100078.13;;;29.17;16.31
45888;BME280;31595;51.418;7.572;2023-04-25T13:05:30;100079.50;;;28.95;16.69
45888;BME280;31595;51.418;7.572;2023-04-25T13:07:57;100088.75;;;27.45;18.11
45888;BME280;31595;51.418;7.572;2023-04-25T13:10:25;100085.06;;;26.30;19.19